Terminal Aerodrome Forecast
Issued by NWS Pendleton, OR

Home | Current Version | Previous Version | Text Only | Print | Product List | Glossary On
Versions: 1 2 3 4 5 6 7 8 9 10 11 12 13 14 15 16 17 18 19 20 21 22
000
FTUS46 KPDT 050529
TAFPDT
TAF
KPDT 050529Z 0506/0606 12004KT P6SM SCT120
     FM052000 32008KT P6SM OVC090
     FM060100 30008KT P6SM OVC050
      TEMPO 0603/0606 -SHRA OVC050=

USA.gov is the U.S. government's official web portal to all federal, state and local government web resources and services.